createdAt,value
2022-11-30T00:01:21.933Z,4.95
2022-11-30T00:03:50.498Z,4.20
2022-11-30T00:06:23.995Z,3.90
2022-11-30T00:08:55.231Z,4.55
2022-11-30T00:11:24.338Z,3.97
2022-11-30T00:13:52.536Z,4.28
2022-11-30T00:16:20.296Z,4.10
2022-11-30T00:18:48.042Z,4.05
2022-11-30T00:21:16.669Z,4.40
2022-11-30T00:23:46.651Z,5.50
2022-11-30T00:26:17.180Z,5.37
2022-11-30T00:28:46.854Z,4.37
2022-11-30T00:31:16.775Z,4.25
2022-11-30T00:33:45.422Z,4.55
2022-11-30T00:36:16.090Z,4.87
2022-11-30T00:38:44.329Z,4.30
2022-11-30T00:41:12.838Z,4.47
2022-11-30T00:43:40.577Z,3.78
2022-11-30T00:46:11.931Z,4.65
2022-11-30T00:48:40.657Z,4.95
2022-11-30T00:51:10.316Z,3.58
2022-11-30T00:53:38.219Z,3.65
2022-11-30T00:56:07.485Z,4.03
2022-11-30T00:58:35.170Z,3.58
2022-11-30T01:01:03.354Z,3.90
2022-11-30T01:03:31.182Z,5.30
2022-11-30T01:06:07.096Z,5.00
2022-11-30T01:08:35.473Z,4.50
2022-11-30T01:11:27.593Z,4.43
2022-11-30T01:13:56.234Z,3.70
2022-11-30T01:16:27.345Z,3.22
2022-11-30T01:18:55.719Z,3.83
2022-11-30T01:21:26.754Z,4.82
2022-11-30T01:23:55.300Z,4.45
2022-11-30T01:26:23.924Z,4.43
2022-11-30T01:28:55.886Z,4.53
2022-11-30T01:31:25.655Z,4.22
2022-11-30T01:33:55.914Z,3.55
2022-11-30T01:36:28.992Z,3.85
2022-11-30T01:38:58.751Z,4.25
2022-11-30T01:41:32.114Z,4.47
2022-11-30T01:44:20.500Z,4.65
2022-11-30T01:46:48.143Z,5.37
2022-11-30T01:49:20.696Z,4.28
2022-11-30T01:51:55.739Z,4.75
2022-11-30T01:54:27.548Z,4.62
2022-11-30T01:57:00.918Z,3.75
2022-11-30T01:59:28.685Z,4.55
2022-11-30T02:01:56.818Z,4.78
2022-11-30T02:04:33.683Z,5.43
2022-11-30T02:07:04.411Z,5.50
2022-11-30T02:09:37.079Z,4.93
2022-11-30T02:12:09.006Z,5.40
2022-11-30T02:15:06.435Z,3.83
2022-11-30T02:17:53.581Z,4.80
2022-11-30T02:21:06.393Z,4.97
2022-11-30T02:24:06.069Z,6.68
2022-11-30T02:26:57.990Z,4.55
2022-11-30T02:29:31.339Z,6.30
2022-11-30T02:32:18.189Z,4.97
2022-11-30T02:34:48.410Z,5.68
2022-11-30T02:37:18.076Z,7.72
2022-11-30T02:39:45.959Z,5.47
2022-11-30T02:42:15.347Z,7.12
2022-11-30T02:44:50.108Z,10.80
2022-11-30T02:47:26.579Z,5.78
2022-11-30T02:50:00.380Z,5.60
2022-11-30T02:52:30.162Z,7.05
2022-11-30T02:55:07.437Z,5.57
2022-11-30T02:57:35.459Z,5.43
2022-11-30T03:00:08.035Z,5.05
2022-11-30T03:02:36.009Z,5.25
2022-11-30T03:05:04.672Z,6.32
2022-11-30T03:07:32.494Z,5.28
2022-11-30T03:10:01.147Z,6.43
2022-11-30T03:12:28.887Z,5.15
2022-11-30T03:14:56.588Z,5.65
2022-11-30T03:17:24.476Z,6.00
2022-11-30T03:19:52.117Z,5.93
2022-11-30T03:22:19.837Z,6.22
2022-11-30T03:24:47.867Z,5.32
2022-11-30T03:27:15.723Z,6.53
2022-11-30T03:29:43.380Z,5.70
2022-11-30T03:32:11.003Z,6.15
2022-11-30T03:34:38.693Z,5.87
2022-11-30T03:37:06.443Z,6.68
2022-11-30T03:39:34.161Z,8.27
2022-11-30T03:42:01.897Z,7.87
2022-11-30T03:44:30.920Z,7.57
2022-11-30T03:46:58.515Z,8.25
2022-11-30T03:49:26.225Z,9.60
2022-11-30T03:51:53.955Z,9.80
2022-11-30T03:54:22.781Z,11.93
2022-11-30T03:56:50.485Z,10.90
2022-11-30T03:59:18.165Z,12.00
2022-11-30T04:01:45.831Z,12.85
2022-11-30T04:04:13.714Z,12.55
2022-11-30T04:06:41.813Z,11.57
2022-11-30T04:09:11.033Z,11.93
2022-11-30T04:11:38.668Z,12.75
2022-11-30T04:14:06.332Z,13.18
2022-11-30T04:16:34.082Z,12.02
2022-11-30T04:19:01.885Z,11.48
2022-11-30T04:21:29.527Z,13.23
2022-11-30T04:23:57.130Z,16.15
2022-11-30T04:26:24.815Z,15.32
2022-11-30T04:28:52.564Z,14.73
2022-11-30T04:31:20.216Z,13.05
2022-11-30T04:33:47.865Z,13.90
2022-11-30T04:36:21.218Z,13.48
2022-11-30T04:38:50.598Z,14.00
2022-11-30T04:41:18.285Z,14.20
2022-11-30T04:43:45.961Z,14.87
2022-11-30T04:46:13.768Z,14.10
2022-11-30T04:48:41.529Z,14.38
2022-11-30T04:51:10.189Z,14.63
2022-11-30T04:53:38.620Z,14.70
2022-11-30T04:56:11.956Z,15.65
2022-11-30T04:58:40.514Z,14.38
2022-11-30T05:01:08.692Z,13.07
2022-11-30T05:03:36.426Z,15.48
2022-11-30T05:06:04.996Z,15.68
2022-11-30T05:08:32.785Z,14.27
2022-11-30T05:11:00.449Z,15.30
2022-11-30T05:13:28.638Z,15.80
2022-11-30T05:15:56.382Z,14.27
2022-11-30T05:18:24.519Z,15.70
2022-11-30T05:20:54.027Z,14.85
2022-11-30T05:23:22.485Z,13.75
2022-11-30T05:25:50.565Z,13.77
2022-11-30T05:28:18.230Z,13.95
2022-11-30T05:30:45.908Z,14.48
2022-11-30T05:33:13.740Z,12.40
2022-11-30T05:35:41.433Z,13.62
2022-11-30T05:38:09.182Z,12.68
2022-11-30T05:40:36.856Z,16.37
2022-11-30T05:43:07.084Z,14.23
2022-11-30T05:45:34.743Z,14.13
2022-11-30T05:48:02.534Z,15.80
2022-11-30T05:50:30.354Z,14.48
2022-11-30T05:52:58.619Z,12.52
2022-11-30T05:55:26.352Z,15.02
2022-11-30T05:57:54.417Z,11.88
2022-11-30T06:00:23.243Z,12.43
2022-11-30T06:02:57.240Z,14.38
2022-11-30T06:05:25.825Z,13.38
2022-11-30T06:07:53.543Z,13.13
2022-11-30T06:10:21.916Z,14.10
2022-11-30T06:12:52.854Z,14.00
2022-11-30T06:15:20.527Z,14.77
2022-11-30T06:17:48.210Z,14.52
2022-11-30T06:20:15.908Z,13.85
2022-11-30T06:22:46.315Z,14.75
2022-11-30T06:25:14.096Z,14.38
2022-11-30T06:27:41.850Z,15.20
2022-11-30T06:30:10.304Z,16.87
2022-11-30T06:32:38.044Z,15.88
2022-11-30T06:35:06.041Z,16.12
2022-11-30T06:37:36.423Z,17.55
2022-11-30T06:40:07.383Z,16.30
2022-11-30T06:42:36.307Z,16.15
2022-11-30T06:45:04.825Z,17.52
2022-11-30T06:47:32.946Z,19.33
2022-11-30T06:50:00.669Z,18.73
2022-11-30T06:52:28.384Z,18.37
2022-11-30T06:54:56.084Z,16.92
2022-11-30T06:57:29.217Z,18.45
2022-11-30T06:59:57.981Z,19.30
2022-11-30T07:02:25.813Z,18.37
2022-11-30T07:04:53.660Z,19.08
2022-11-30T07:07:21.537Z,18.73
2022-11-30T07:09:49.249Z,18.70
2022-11-30T07:12:16.984Z,18.75
2022-11-30T07:14:44.744Z,19.80
2022-11-30T07:17:12.607Z,17.77
2022-11-30T07:19:40.230Z,18.02
2022-11-30T07:22:07.924Z,17.85
2022-11-30T07:24:55.838Z,17.15
2022-11-30T07:27:23.494Z,16.17
2022-11-30T07:29:52.672Z,19.02
2022-11-30T07:32:20.519Z,21.10
2022-11-30T07:34:48.350Z,19.02
2022-11-30T07:37:16.538Z,17.58
2022-11-30T07:39:44.204Z,15.40
2022-11-30T07:42:12.052Z,18.85
2022-11-30T07:44:39.761Z,17.77
2022-11-30T07:47:07.376Z,18.12
2022-11-30T07:49:35.012Z,16.87
2022-11-30T07:52:05.572Z,16.60
2022-11-30T07:54:33.275Z,14.63
2022-11-30T07:57:01.036Z,16.08
2022-11-30T07:59:28.665Z,14.55
2022-11-30T08:01:56.444Z,14.55
2022-11-30T08:04:24.244Z,16.02
2022-11-30T08:06:54.627Z,15.30
2022-11-30T08:09:22.381Z,13.00
2022-11-30T08:11:50.474Z,12.95
2022-11-30T08:14:18.270Z,13.70
2022-11-30T08:16:46.110Z,13.23
2022-11-30T08:19:13.968Z,11.80
2022-11-30T08:21:41.637Z,9.73
2022-11-30T08:24:12.919Z,12.40
2022-11-30T08:26:40.747Z,10.38
2022-11-30T08:29:08.364Z,9.95
2022-11-30T08:31:38.122Z,7.87
2022-11-30T08:34:09.107Z,7.57
2022-11-30T08:36:36.762Z,9.60
2022-11-30T08:39:06.183Z,7.22
2022-11-30T08:41:35.033Z,8.57
2022-11-30T08:44:03.247Z,6.25
2022-11-30T08:49:23.507Z,5.55
2022-11-30T08:54:47.243Z,6.25
2022-11-30T08:57:17.194Z,6.30
2022-11-30T08:59:45.229Z,5.80
2022-11-30T09:02:15.131Z,5.85
2022-11-30T09:04:43.000Z,5.07
2022-11-30T09:07:10.899Z,5.75
2022-11-30T09:09:39.146Z,5.55
2022-11-30T09:12:08.099Z,4.32
2022-11-30T09:14:35.936Z,5.95
2022-11-30T09:17:04.182Z,6.68
2022-11-30T09:19:32.046Z,5.32
2022-11-30T09:21:59.940Z,5.00
2022-11-30T09:24:27.633Z,5.22
2022-11-30T09:26:58.936Z,5.03
2022-11-30T09:29:26.659Z,5.18
2022-11-30T09:31:54.360Z,5.70
2022-11-30T09:34:22.147Z,4.70
2022-11-30T09:36:49.863Z,6.25
2022-11-30T09:39:17.541Z,4.03
2022-11-30T09:42:00.499Z,5.30
2022-11-30T09:44:39.995Z,4.20
2022-11-30T09:47:35.457Z,3.60
2022-11-30T09:50:14.929Z,4.03
2022-11-30T09:52:48.177Z,5.93
2022-11-30T09:55:24.690Z,4.18
2022-11-30T09:57:56.292Z,5.60
2022-11-30T10:00:25.930Z,4.90
2022-11-30T10:02:57.367Z,4.90
2022-11-30T10:05:30.468Z,5.07
2022-11-30T10:08:22.097Z,4.07
2022-11-30T10:11:27.707Z,6.62
2022-11-30T10:14:37.781Z,5.03
2022-11-30T10:17:18.872Z,5.93
2022-11-30T10:20:29.542Z,5.85
2022-11-30T10:23:25.242Z,6.68
2022-11-30T10:26:04.946Z,8.40
2022-11-30T10:28:47.440Z,5.65
2022-11-30T10:31:17.624Z,7.32
2022-11-30T10:33:51.148Z,7.72
2022-11-30T10:36:24.391Z,9.73
2022-11-30T10:38:57.048Z,8.50
2022-11-30T10:41:33.926Z,8.52
2022-11-30T10:44:27.153Z,9.77
2022-11-30T10:47:23.558Z,9.25
2022-11-30T10:49:52.494Z,11.05
2022-11-30T10:52:26.242Z,11.80
2022-11-30T10:55:02.270Z,13.18
2022-11-30T10:57:34.184Z,10.63
2022-11-30T11:00:06.466Z,11.43
2022-11-30T11:02:49.301Z,8.77
2022-11-30T11:05:21.407Z,8.25
2022-11-30T11:08:07.160Z,9.77
2022-11-30T11:10:38.474Z,10.15
2022-11-30T11:13:06.523Z,10.88
2022-11-30T11:15:35.932Z,9.80
2022-11-30T11:18:37.301Z,10.02
2022-11-30T11:21:19.128Z,9.93
2022-11-30T11:23:48.683Z,9.93
2022-11-30T11:26:26.962Z,10.18
2022-11-30T11:28:56.688Z,9.43
2022-11-30T11:31:37.791Z,11.07
2022-11-30T11:34:23.586Z,9.90
2022-11-30T11:37:17.873Z,8.68
2022-11-30T11:39:58.473Z,11.68
2022-11-30T11:42:28.036Z,10.35
2022-11-30T11:44:59.027Z,13.27
2022-11-30T11:47:44.753Z,11.48
2022-11-30T11:51:05.467Z,10.80
2022-11-30T11:53:26.471Z,12.48
2022-11-30T11:56:01.639Z,10.88
2022-11-30T11:58:42.751Z,10.48
2022-11-30T12:04:25.291Z,8.10
2022-11-30T12:06:55.890Z,9.98
2022-11-30T12:09:33.419Z,10.80
2022-11-30T12:12:01.183Z,10.15
2022-11-30T12:14:32.345Z,8.77
2022-11-30T12:17:37.514Z,9.70
2022-11-30T12:20:23.502Z,9.82
2022-11-30T12:22:58.183Z,10.15
2022-11-30T12:25:29.215Z,8.25
2022-11-30T12:28:18.318Z,10.32
2022-11-30T12:31:11.960Z,10.50
2022-11-30T12:33:45.461Z,9.45
2022-11-30T12:36:25.022Z,9.10
2022-11-30T12:39:19.138Z,8.65
2022-11-30T12:42:00.133Z,9.13
2022-11-30T12:44:49.068Z,7.62
2022-11-30T12:47:33.160Z,7.65
2022-11-30T12:50:03.508Z,7.47
2022-11-30T12:52:38.984Z,7.37
2022-11-30T12:55:27.605Z,10.73
2022-11-30T12:58:09.107Z,8.52
2022-11-30T13:00:42.793Z,7.75
2022-11-30T13:03:36.494Z,6.62
2022-11-30T13:06:13.092Z,7.70
2022-11-30T13:08:50.079Z,8.00
2022-11-30T13:11:22.446Z,6.85
2022-11-30T13:13:57.191Z,7.07
2022-11-30T13:16:26.605Z,7.87
2022-11-30T13:19:00.396Z,7.45
2022-11-30T13:21:38.909Z,9.05
2022-11-30T13:24:33.415Z,7.80
2022-11-30T13:27:09.859Z,10.27
2022-11-30T13:30:08.661Z,7.12
2022-11-30T13:35:42.665Z,7.57
2022-11-30T13:38:37.611Z,7.82
2022-11-30T13:41:08.564Z,7.60
2022-11-30T13:43:44.008Z,6.87
2022-11-30T13:46:20.841Z,6.68
2022-11-30T13:48:49.871Z,7.70
2022-11-30T13:51:38.207Z,6.90
2022-11-30T13:54:40.024Z,5.87
2022-11-30T13:57:26.079Z,6.62
2022-11-30T14:00:01.466Z,7.53
2022-11-30T14:02:32.453Z,6.50
2022-11-30T14:05:18.661Z,8.13
2022-11-30T14:08:06.610Z,10.10
2022-11-30T14:10:43.997Z,11.00
2022-11-30T14:13:11.755Z,9.52
2022-11-30T14:15:39.418Z,8.50
2022-11-30T14:18:10.231Z,8.30
2022-11-30T14:20:50.813Z,10.60
2022-11-30T14:23:40.466Z,10.88
2022-11-30T14:26:12.101Z,11.95
2022-11-30T14:29:04.628Z,11.10
2022-11-30T14:31:37.797Z,11.05
2022-11-30T14:34:16.770Z,12.85
2022-11-30T14:36:49.778Z,12.70
2022-11-30T14:39:42.871Z,10.77
2022-11-30T14:42:23.358Z,10.85
2022-11-30T14:44:51.988Z,10.80
2022-11-30T14:47:25.587Z,10.18
2022-11-30T14:49:56.166Z,12.40
2022-11-30T14:52:44.879Z,10.35
2022-11-30T14:55:29.353Z,17.55
2022-11-30T14:58:28.139Z,11.12
2022-11-30T15:00:56.167Z,11.30
2022-11-30T15:03:40.439Z,11.82
2022-11-30T15:06:09.005Z,11.12
2022-11-30T15:08:43.015Z,12.57
2022-11-30T15:11:13.132Z,13.00
2022-11-30T15:13:44.572Z,13.13
2022-11-30T15:16:22.909Z,12.77
2022-11-30T15:18:51.543Z,11.90
2022-11-30T15:21:27.944Z,11.77
2022-11-30T15:23:57.730Z,11.77
2022-11-30T15:27:05.506Z,11.40
2022-11-30T15:29:40.185Z,12.95
2022-11-30T15:32:20.612Z,11.02
2022-11-30T15:35:01.897Z,10.55
2022-11-30T15:37:32.513Z,11.65
2022-11-30T15:40:03.032Z,13.48
2022-11-30T15:42:40.898Z,12.75
2022-11-30T15:45:15.500Z,10.40
2022-11-30T15:47:43.261Z,12.63
2022-11-30T15:50:32.321Z,11.73
2022-11-30T15:53:02.816Z,14.10
2022-11-30T15:55:48.907Z,11.80
2022-11-30T15:58:31.492Z,9.95
2022-11-30T16:01:12.390Z,11.38
2022-11-30T16:04:00.689Z,11.82
2022-11-30T16:06:48.787Z,10.45
2022-11-30T16:09:34.360Z,10.70
2022-11-30T16:12:03.294Z,10.98
2022-11-30T16:14:30.997Z,14.75
2022-11-30T16:17:01.650Z,10.48
2022-11-30T16:19:33.220Z,9.68
2022-11-30T16:22:00.985Z,12.52
2022-11-30T16:24:28.675Z,13.20
2022-11-30T16:26:56.272Z,10.73
2022-11-30T16:29:23.992Z,10.70
2022-11-30T16:31:51.748Z,12.07
2022-11-30T16:34:19.446Z,12.15
2022-11-30T16:36:47.101Z,11.00
2022-11-30T16:39:14.766Z,11.80
2022-11-30T16:41:42.560Z,11.70
2022-11-30T16:44:15.046Z,12.93
2022-11-30T16:46:43.097Z,11.85
2022-11-30T16:49:10.920Z,12.65
2022-11-30T16:51:38.669Z,10.60
2022-11-30T16:54:06.757Z,14.38
2022-11-30T16:56:34.692Z,12.75
2022-11-30T16:59:02.455Z,10.90
2022-11-30T17:01:35.947Z,12.13
2022-11-30T17:04:23.947Z,12.98
2022-11-30T17:06:55.853Z,11.50
2022-11-30T17:09:27.940Z,12.95
2022-11-30T17:11:55.646Z,12.18
2022-11-30T17:14:23.547Z,14.60
2022-11-30T17:16:51.358Z,12.55
2022-11-30T17:19:19.706Z,13.68
2022-11-30T17:21:47.693Z,13.18
2022-11-30T17:24:15.640Z,12.20
2022-11-30T17:26:43.459Z,10.20
2022-11-30T17:29:11.063Z,12.57
2022-11-30T17:31:38.778Z,10.43
2022-11-30T17:34:07.034Z,10.57
2022-11-30T17:36:34.766Z,11.73
2022-11-30T17:39:08.231Z,8.20
2022-11-30T17:41:36.098Z,8.63
2022-11-30T17:44:03.954Z,8.13
2022-11-30T17:46:31.654Z,8.57
2022-11-30T17:48:59.699Z,7.35
2022-11-30T17:51:27.411Z,7.87
2022-11-30T17:53:55.087Z,7.05
2022-11-30T17:56:23.158Z,8.68
2022-11-30T17:58:51.127Z,7.78
2022-11-30T18:01:24.968Z,7.90
2022-11-30T18:03:54.008Z,8.32
2022-11-30T18:06:21.894Z,9.50
2022-11-30T18:08:49.686Z,9.60
2022-11-30T18:11:22.932Z,8.85
2022-11-30T18:13:54.415Z,8.35
2022-11-30T18:16:25.764Z,10.05
2022-11-30T18:18:54.345Z,7.47
2022-11-30T18:21:24.071Z,8.23
2022-11-30T18:23:52.297Z,8.93
2022-11-30T18:26:22.645Z,6.78
2022-11-30T18:28:55.377Z,8.77
2022-11-30T18:31:23.188Z,9.07
2022-11-30T18:33:58.553Z,7.60
2022-11-30T18:36:26.959Z,9.02
2022-11-30T18:38:55.008Z,10.07
2022-11-30T18:41:23.403Z,10.25
2022-11-30T18:43:51.062Z,11.02
2022-11-30T18:46:18.678Z,6.78
2022-11-30T18:48:51.157Z,10.20
2022-11-30T18:51:21.512Z,9.15
2022-11-30T18:53:49.225Z,9.60
2022-11-30T18:56:19.582Z,9.13
2022-11-30T18:58:48.897Z,9.50
2022-11-30T19:01:19.586Z,9.75
2022-11-30T19:03:54.702Z,11.20
2022-11-30T19:06:23.143Z,12.13
2022-11-30T19:08:50.752Z,8.95
2022-11-30T19:11:19.048Z,8.10
2022-11-30T19:13:47.156Z,9.88
2022-11-30T19:16:17.597Z,10.05
2022-11-30T19:18:46.229Z,10.93
2022-11-30T19:21:19.109Z,10.35
2022-11-30T19:23:47.541Z,10.93
2022-11-30T19:26:16.330Z,11.18
2022-11-30T19:28:45.160Z,11.00
2022-11-30T19:31:16.083Z,11.32
2022-11-30T19:33:46.345Z,12.75
2022-11-30T19:36:22.500Z,12.18
2022-11-30T19:38:52.359Z,11.45
2022-11-30T19:41:21.944Z,11.07
2022-11-30T19:43:58.303Z,9.35
2022-11-30T19:46:31.797Z,11.12
2022-11-30T19:49:02.312Z,9.98
2022-11-30T19:51:31.462Z,10.35
2022-11-30T19:54:00.384Z,9.13
2022-11-30T19:56:29.732Z,11.75
2022-11-30T19:59:04.108Z,9.00
2022-11-30T20:01:32.734Z,11.25
2022-11-30T20:04:00.436Z,11.10
2022-11-30T20:06:31.227Z,10.50
2022-11-30T20:08:59.160Z,10.65
2022-11-30T20:11:26.864Z,10.02
2022-11-30T20:13:54.880Z,10.45
2022-11-30T20:16:23.928Z,10.00
2022-11-30T20:18:54.807Z,11.55
2022-11-30T20:21:25.732Z,10.73
2022-11-30T20:23:54.800Z,11.82
2022-11-30T20:26:25.647Z,11.35
2022-11-30T20:28:53.951Z,11.68
2022-11-30T20:31:23.978Z,14.48
2022-11-30T20:33:52.085Z,11.40
2022-11-30T20:36:21.271Z,9.77
2022-11-30T20:38:49.460Z,12.90
2022-11-30T20:41:23.134Z,13.73
2022-11-30T20:43:51.401Z,11.73
2022-11-30T20:46:25.028Z,11.98
2022-11-30T20:48:53.253Z,12.82
2022-11-30T20:51:33.891Z,11.57
2022-11-30T20:54:04.684Z,11.57
2022-11-30T20:56:32.633Z,10.75
2022-11-30T20:59:06.198Z,12.10
2022-11-30T21:01:34.170Z,12.57
2022-11-30T21:04:02.259Z,12.50
2022-11-30T21:06:31.930Z,12.13
2022-11-30T21:09:00.511Z,11.40
2022-11-30T21:11:29.685Z,10.77
2022-11-30T21:13:59.117Z,11.57
2022-11-30T21:16:29.256Z,11.60
2022-11-30T21:18:59.932Z,10.27
2022-11-30T21:21:34.370Z,11.90
2022-11-30T21:24:05.619Z,12.20
2022-11-30T21:26:36.713Z,10.10
2022-11-30T21:29:15.374Z,10.75
2022-11-30T21:31:43.791Z,10.07
2022-11-30T21:34:11.574Z,11.55
2022-11-30T21:36:39.885Z,10.88
2022-11-30T21:39:08.643Z,11.25
2022-11-30T21:41:38.125Z,10.10
2022-11-30T21:44:07.059Z,11.07
2022-11-30T21:46:35.231Z,11.05
2022-11-30T21:49:03.962Z,10.65
2022-11-30T21:51:35.434Z,11.70
2022-11-30T21:54:06.275Z,14.43
2022-11-30T21:56:36.878Z,11.68
2022-11-30T21:59:09.495Z,12.10
2022-11-30T22:01:42.842Z,11.98
2022-11-30T22:04:13.087Z,13.62
2022-11-30T22:06:42.258Z,14.23
2022-11-30T22:09:14.906Z,14.13
2022-11-30T22:11:44.787Z,12.80
2022-11-30T22:14:15.322Z,13.13
2022-11-30T22:16:43.849Z,13.70
2022-11-30T22:19:12.148Z,11.40
2022-11-30T22:21:40.346Z,13.30
2022-11-30T22:24:14.493Z,15.80
2022-11-30T22:26:44.752Z,14.13
2022-11-30T22:29:23.503Z,14.73
2022-11-30T22:31:54.963Z,13.23
2022-11-30T22:34:22.682Z,13.93
2022-11-30T22:36:50.342Z,15.75
2022-11-30T22:39:20.818Z,12.68
2022-11-30T22:41:54.729Z,12.82
2022-11-30T22:44:24.067Z,15.00
2022-11-30T22:46:51.987Z,13.18
2022-11-30T22:49:21.711Z,14.07
2022-11-30T22:51:50.538Z,14.35
2022-11-30T22:54:18.912Z,13.32
2022-11-30T22:56:47.420Z,14.07
2022-11-30T22:59:16.106Z,14.90
2022-11-30T23:01:49.542Z,14.60
2022-11-30T23:04:19.827Z,12.73
2022-11-30T23:06:49.287Z,15.18
2022-11-30T23:09:21.946Z,13.65
2022-11-30T23:11:50.872Z,13.70
2022-11-30T23:14:19.250Z,13.38
2022-11-30T23:16:47.133Z,13.40
2022-11-30T23:19:15.692Z,13.73
2022-11-30T23:21:46.476Z,14.35
2022-11-30T23:24:18.586Z,13.45
2022-11-30T23:26:46.433Z,14.02
2022-11-30T23:29:16.164Z,14.82
2022-11-30T23:31:45.733Z,13.30
2022-11-30T23:34:17.272Z,14.63
2022-11-30T23:36:45.164Z,13.13
2022-11-30T23:39:16.832Z,13.88
2022-11-30T23:41:44.826Z,11.63
2022-11-30T23:44:13.185Z,15.43
2022-11-30T23:46:41.354Z,14.20
2022-11-30T23:49:09.434Z,19.10
2022-11-30T23:51:37.203Z,15.07
2022-11-30T23:54:05.078Z,16.50
2022-11-30T23:56:32.773Z,15.70
2022-11-30T23:59:00.556Z,14.38
